sensor_id;sensor_type;location;lat;lon;timestamp;pressure;altitude;pressure_sealevel;temperature;humidity
67517;BME280;54359;59.124;37.910;2022-10-26T00:00:28;100310.13;;;1.90;78.36
67517;BME280;54359;59.124;37.910;2022-10-26T00:03:16;100313.59;;;1.92;78.16
67517;BME280;54359;59.124;37.910;2022-10-26T00:05:43;100304.91;;;1.87;78.78
67517;BME280;54359;59.124;37.910;2022-10-26T00:08:11;100305.03;;;1.90;78.76
67517;BME280;54359;59.124;37.910;2022-10-26T00:10:39;100301.56;;;1.88;78.90
67517;BME280;54359;59.124;37.910;2022-10-26T00:13:26;100312.31;;;2.00;78.43
67517;BME280;54359;59.124;37.910;2022-10-26T00:15:53;100319.06;;;1.99;78.34
67517;BME280;54359;59.124;37.910;2022-10-26T00:18:19;100304.41;;;1.94;78.65
67517;BME280;54359;59.124;37.910;2022-10-26T00:20:53;100312.53;;;2.05;78.18
67517;BME280;54359;59.124;37.910;2022-10-26T00:23:21;100309.94;;;2.03;78.49
67517;BME280;54359;59.124;37.910;2022-10-26T00:25:54;100306.47;;;2.01;78.19
67517;BME280;54359;59.124;37.910;2022-10-26T00:28:21;100303.03;;;2.00;78.47
67517;BME280;54359;59.124;37.910;2022-10-26T00:31:13;100311.91;;;2.09;78.43
67517;BME280;54359;59.124;37.910;2022-10-26T00:33:59;100314.31;;;2.06;78.36
67517;BME280;54359;59.124;37.910;2022-10-26T00:36:43;100305.44;;;1.97;78.66
67517;BME280;54359;59.124;37.910;2022-10-26T00:39:28;100299.25;;;1.92;78.30
67517;BME280;54359;59.124;37.910;2022-10-26T00:41:57;100311.06;;;1.92;78.58
67517;BME280;54359;59.124;37.910;2022-10-26T00:50:29;100297.78;;;1.63;78.15
67517;BME280;54359;59.124;37.910;2022-10-26T00:52:59;100294.72;;;1.52;77.58
67517;BME280;54359;59.124;37.910;2022-10-26T00:55:31;100301.66;;;1.56;77.93
67517;BME280;54359;59.124;37.910;2022-10-26T00:58:19;100302.06;;;1.48;78.12
67517;BME280;54359;59.124;37.910;2022-10-26T01:01:04;100305.56;;;1.50;78.32
67517;BME280;54359;59.124;37.910;2022-10-26T01:03:50;100301.13;;;1.46;77.76
67517;BME280;54359;59.124;37.910;2022-10-26T01:06:35;100317.91;;;1.44;78.17
67517;BME280;54359;59.124;37.910;2022-10-26T01:09:06;100299.84;;;1.37;78.28
67517;BME280;54359;59.124;37.910;2022-10-26T01:11:50;100305.69;;;1.36;77.78
67517;BME280;54359;59.124;37.910;2022-10-26T01:14:17;100309.09;;;1.37;77.74
67517;BME280;54359;59.124;37.910;2022-10-26T01:32:33;100295.88;;;1.26;78.14
67517;BME280;54359;59.124;37.910;2022-10-26T01:35:27;100292.38;;;1.24;78.27
67517;BME280;54359;59.124;37.910;2022-10-26T01:38:10;100283.75;;;1.20;78.16
67517;BME280;54359;59.124;37.910;2022-10-26T01:40:44;100299.03;;;1.22;78.44
67517;BME280;54359;59.124;37.910;2022-10-26T01:43:14;100299.50;;;1.15;78.27
67517;BME280;54359;59.124;37.910;2022-10-26T01:45:44;100292.78;;;1.15;78.04
67517;BME280;54359;59.124;37.910;2022-10-26T01:48:16;100294.13;;;1.09;77.82
67517;BME280;54359;59.124;37.910;2022-10-26T01:50:50;100294.97;;;1.09;78.09
67517;BME280;54359;59.124;37.910;2022-10-26T01:53:18;100289.75;;;1.06;77.80
67517;BME280;54359;59.124;37.910;2022-10-26T01:55:53;100293.72;;;1.01;78.33
67517;BME280;54359;59.124;37.910;2022-10-26T01:58:51;100279.06;;;0.95;77.87
67517;BME280;54359;59.124;37.910;2022-10-26T02:04:28;100286.66;;;0.95;78.33
67517;BME280;54359;59.124;37.910;2022-10-26T02:07:24;100279.59;;;0.90;77.85
67517;BME280;54359;59.124;37.910;2022-10-26T02:10:49;100278.72;;;0.89;78.27
67517;BME280;54359;59.124;37.910;2022-10-26T02:13:32;100268.50;;;0.88;77.81
67517;BME280;54359;59.124;37.910;2022-10-26T02:16:28;100277.69;;;0.86;78.22
67517;BME280;54359;59.124;37.910;2022-10-26T02:19:02;100277.63;;;0.84;78.00
67517;BME280;54359;59.124;37.910;2022-10-26T02:21:54;100268.13;;;0.80;77.85
67517;BME280;54359;59.124;37.910;2022-10-26T02:24:24;100268.19;;;0.82;78.37
67517;BME280;54359;59.124;37.910;2022-10-26T02:27:15;100279.09;;;0.80;78.40
67517;BME280;54359;59.124;37.910;2022-10-26T02:30:04;100274.03;;;0.80;78.02
67517;BME280;54359;59.124;37.910;2022-10-26T02:32:52;100272.28;;;0.79;78.03
67517;BME280;54359;59.124;37.910;2022-10-26T02:35:40;100277.44;;;0.81;77.88
67517;BME280;54359;59.124;37.910;2022-10-26T02:38:29;100281.63;;;0.80;78.06
67517;BME280;54359;59.124;37.910;2022-10-26T02:41:00;100275.78;;;0.82;78.03
67517;BME280;54359;59.124;37.910;2022-10-26T02:43:29;100279.25;;;0.84;77.96
67517;BME280;54359;59.124;37.910;2022-10-26T02:46:14;100268.97;;;0.80;77.90
67517;BME280;54359;59.124;37.910;2022-10-26T02:48:43;100275.09;;;0.84;78.43
67517;BME280;54359;59.124;37.910;2022-10-26T02:51:32;100266.28;;;0.77;78.70
67517;BME280;54359;59.124;37.910;2022-10-26T02:57:02;100267.13;;;0.93;78.68
67517;BME280;54359;59.124;37.910;2022-10-26T02:59:49;100239.72;;;0.86;78.63
67517;BME280;54359;59.124;37.910;2022-10-26T03:02:18;100265.22;;;1.05;79.10
67517;BME280;54359;59.124;37.910;2022-10-26T03:04:48;100250.28;;;1.10;79.02
67517;BME280;54359;59.124;37.910;2022-10-26T03:07:35;100258.59;;;1.24;78.76
67517;BME280;54359;59.124;37.910;2022-10-26T03:10:02;100246.03;;;1.25;78.70
67517;BME280;54359;59.124;37.910;2022-10-26T03:12:48;100229.41;;;1.30;78.67
67517;BME280;54359;59.124;37.910;2022-10-26T03:15:35;100227.19;;;1.36;78.89
67517;BME280;54359;59.124;37.910;2022-10-26T03:18:19;100243.94;;;1.51;78.87
67517;BME280;54359;59.124;37.910;2022-10-26T03:21:05;100245.94;;;1.56;79.00
67517;BME280;54359;59.124;37.910;2022-10-26T03:23:31;100233.19;;;1.55;78.57
67517;BME280;54359;59.124;37.910;2022-10-26T03:26:19;100247.28;;;1.66;78.98
67517;BME280;54359;59.124;37.910;2022-10-26T03:28:46;100232.72;;;1.62;78.30
67517;BME280;54359;59.124;37.910;2022-10-26T03:31:30;100238.16;;;1.70;78.43
67517;BME280;54359;59.124;37.910;2022-10-26T03:33:57;100211.81;;;1.66;78.44
67517;BME280;54359;59.124;37.910;2022-10-26T03:36:23;100225.41;;;1.68;78.40
67517;BME280;54359;59.124;37.910;2022-10-26T03:39:10;100228.31;;;1.76;78.25
67517;BME280;54359;59.124;37.910;2022-10-26T03:41:57;100241.06;;;1.77;78.83
67517;BME280;54359;59.124;37.910;2022-10-26T03:44:43;100215.41;;;1.71;78.70
67517;BME280;54359;59.124;37.910;2022-10-26T03:47:10;100226.97;;;1.83;78.57
67517;BME280;54359;59.124;37.910;2022-10-26T03:49:58;100226.97;;;1.83;78.97
67517;BME280;54359;59.124;37.910;2022-10-26T03:52:43;100229.66;;;1.86;78.92
67517;BME280;54359;59.124;37.910;2022-10-26T03:55:10;100224.66;;;1.87;78.57
67517;BME280;54359;59.124;37.910;2022-10-26T03:57:56;100223.00;;;1.88;78.65
67517;BME280;54359;59.124;37.910;2022-10-26T04:00:41;100210.97;;;1.84;78.44
67517;BME280;54359;59.124;37.910;2022-10-26T04:03:28;100216.25;;;1.88;78.93
67517;BME280;54359;59.124;37.910;2022-10-26T04:05:54;100207.56;;;1.83;78.49
67517;BME280;54359;59.124;37.910;2022-10-26T04:08:24;100216.25;;;1.88;78.76
67517;BME280;54359;59.124;37.910;2022-10-26T04:11:12;100211.13;;;1.87;78.76
67517;BME280;54359;59.124;37.910;2022-10-26T04:13:57;100221.25;;;1.87;78.48
67517;BME280;54359;59.124;37.910;2022-10-26T04:16:46;100230.75;;;1.91;78.46
67517;BME280;54359;59.124;37.910;2022-10-26T04:19:12;100207.47;;;1.81;78.77
67517;BME280;54359;59.124;37.910;2022-10-26T04:21:38;100176.88;;;1.60;78.68
67517;BME280;54359;59.124;37.910;2022-10-26T04:24:04;100216.31;;;1.90;78.83
67517;BME280;54359;59.124;37.910;2022-10-26T04:26:32;100184.06;;;1.69;78.57
67517;BME280;54359;59.124;37.910;2022-10-26T04:29:18;100211.34;;;1.91;78.67
67517;BME280;54359;59.124;37.910;2022-10-26T04:31:46;100218.22;;;1.94;78.57
67517;BME280;54359;59.124;37.910;2022-10-26T04:34:12;100204.59;;;1.92;78.40
67517;BME280;54359;59.124;37.910;2022-10-26T04:36:38;100212.38;;;1.95;78.51
67517;BME280;54359;59.124;37.910;2022-10-26T04:39:23;100214.31;;;2.00;78.60
67517;BME280;54359;59.124;37.910;2022-10-26T04:42:08;100192.78;;;1.92;79.38
67517;BME280;54359;59.124;37.910;2022-10-26T04:44:54;100217.13;;;2.07;78.30
67517;BME280;54359;59.124;37.910;2022-10-26T04:50:26;100219.28;;;2.15;79.18
67517;BME280;54359;59.124;37.910;2022-10-26T04:52:56;100216.78;;;2.17;78.78
67517;BME280;54359;59.124;37.910;2022-10-26T04:55:23;100216.78;;;2.17;78.93
67517;BME280;54359;59.124;37.910;2022-10-26T04:57:52;100219.69;;;2.25;78.92
67517;BME280;54359;59.124;37.910;2022-10-26T05:00:39;100223.97;;;2.26;78.77
67517;BME280;54359;59.124;37.910;2022-10-26T05:03:06;100214.50;;;2.21;78.99
67517;BME280;54359;59.124;37.910;2022-10-26T05:05:57;100220.44;;;2.22;79.16
67517;BME280;54359;59.124;37.910;2022-10-26T05:08:26;100201.66;;;2.18;78.86
67517;BME280;54359;59.124;37.910;2022-10-26T05:10:52;100209.47;;;2.23;78.81
67517;BME280;54359;59.124;37.910;2022-10-26T05:13:37;100199.97;;;2.19;79.11
67517;BME280;54359;59.124;37.910;2022-10-26T05:16:22;100212.28;;;2.29;78.96
67517;BME280;54359;59.124;37.910;2022-10-26T05:18:47;100195.28;;;2.27;79.09
67517;BME280;54359;59.124;37.910;2022-10-26T05:21:16;100202.50;;;2.37;78.94
67517;BME280;54359;59.124;37.910;2022-10-26T05:23:51;100200.13;;;2.40;79.03
67517;BME280;54359;59.124;37.910;2022-10-26T05:26:23;100190.94;;;2.42;79.22
67517;BME280;54359;59.124;37.910;2022-10-26T05:29:07;100197.88;;;2.46;78.95
67517;BME280;54359;59.124;37.910;2022-10-26T05:31:36;100186.94;;;2.47;78.96
67517;BME280;54359;59.124;37.910;2022-10-26T05:34:03;100202.03;;;2.44;78.97
67517;BME280;54359;59.124;37.910;2022-10-26T05:36:29;100194.16;;;2.39;78.70
67517;BME280;54359;59.124;37.910;2022-10-26T05:38:59;100201.78;;;2.39;78.79
67517;BME280;54359;59.124;37.910;2022-10-26T05:41:26;100190.00;;;2.40;79.54
67517;BME280;54359;59.124;37.910;2022-10-26T05:44:10;100173.00;;;2.39;79.18
67517;BME280;54359;59.124;37.910;2022-10-26T05:46:36;100187.13;;;2.52;79.01
67517;BME280;54359;59.124;37.910;2022-10-26T05:49:04;100183.72;;;2.51;79.13
67517;BME280;54359;59.124;37.910;2022-10-26T05:51:49;100180.53;;;2.55;78.99
67517;BME280;54359;59.124;37.910;2022-10-26T05:54:16;100184.28;;;2.64;79.11
67517;BME280;54359;59.124;37.910;2022-10-26T05:57:00;100189.84;;;2.74;79.38
67517;BME280;54359;59.124;37.910;2022-10-26T05:59:45;100173.56;;;2.69;79.21
67517;BME280;54359;59.124;37.910;2022-10-26T06:02:22;100179.47;;;2.88;79.72
67517;BME280;54359;59.124;37.910;2022-10-26T06:04:54;100184.81;;;2.94;79.59
67517;BME280;54359;59.124;37.910;2022-10-26T06:07:43;100179.91;;;2.98;79.48
67517;BME280;54359;59.124;37.910;2022-10-26T06:10:10;100176.78;;;3.04;79.33
67517;BME280;54359;59.124;37.910;2022-10-26T06:12:57;100185.75;;;2.96;79.44
67517;BME280;54359;59.124;37.910;2022-10-26T06:15:24;100195.03;;;2.95;79.19
67517;BME280;54359;59.124;37.910;2022-10-26T06:18:43;100196.41;;;2.89;79.16
67517;BME280;54359;59.124;37.910;2022-10-26T06:28:08;100192.19;;;2.52;79.42
67517;BME280;54359;59.124;37.910;2022-10-26T06:31:01;100201.22;;;2.45;79.63
67517;BME280;54359;59.124;37.910;2022-10-26T06:33:45;100204.19;;;2.36;79.51
67517;BME280;54359;59.124;37.910;2022-10-26T06:36:24;100194.25;;;2.23;79.26
67517;BME280;54359;59.124;37.910;2022-10-26T06:39:07;100188.03;;;2.16;79.70
67517;BME280;54359;59.124;37.910;2022-10-26T06:41:42;100192.16;;;2.14;80.02
67517;BME280;54359;59.124;37.910;2022-10-26T06:44:23;100180.69;;;2.05;80.15
67517;BME280;54359;59.124;37.910;2022-10-26T06:49:41;100189.25;;;2.07;79.64
67517;BME280;54359;59.124;37.910;2022-10-26T06:52:47;100196.50;;;1.99;79.87
67517;BME280;54359;59.124;37.910;2022-10-26T06:55:17;100192.09;;;1.95;79.95
67517;BME280;54359;59.124;37.910;2022-10-26T06:58:03;100190.97;;;1.90;80.40
67517;BME280;54359;59.124;37.910;2022-10-26T07:00:30;100192.66;;;1.89;80.45
67517;BME280;54359;59.124;37.910;2022-10-26T07:03:15;100176.63;;;1.90;80.41
67517;BME280;54359;59.124;37.910;2022-10-26T07:05:46;100175.22;;;1.95;80.59
67517;BME280;54359;59.124;37.910;2022-10-26T07:08:13;100176.34;;;2.02;80.58
67517;BME280;54359;59.124;37.910;2022-10-26T07:10:58;100174.84;;;2.06;80.66
67517;BME280;54359;59.124;37.910;2022-10-26T07:13:24;100183.31;;;2.06;80.66
67517;BME280;54359;59.124;37.910;2022-10-26T07:15:50;100179.28;;;2.10;80.50
67517;BME280;54359;59.124;37.910;2022-10-26T07:18:19;100179.19;;;2.08;80.33
67517;BME280;54359;59.124;37.910;2022-10-26T07:20:45;100164.50;;;2.01;80.65
67517;BME280;54359;59.124;37.910;2022-10-26T07:23:35;100172.59;;;2.12;81.02
67517;BME280;54359;59.124;37.910;2022-10-26T07:26:01;100179.47;;;2.14;80.92
67517;BME280;54359;59.124;37.910;2022-10-26T07:28:28;100158.13;;;2.09;80.73
67517;BME280;54359;59.124;37.910;2022-10-26T07:31:18;100174.03;;;2.25;80.82
67517;BME280;54359;59.124;37.910;2022-10-26T07:34:04;100158.97;;;2.28;80.79
67517;BME280;54359;59.124;37.910;2022-10-26T07:36:31;100170.19;;;2.33;80.93
67517;BME280;54359;59.124;37.910;2022-10-26T07:39:26;100173.88;;;2.39;80.72
67517;BME280;54359;59.124;37.910;2022-10-26T07:42:10;100171.41;;;2.41;80.17
67517;BME280;54359;59.124;37.910;2022-10-26T07:44:43;100168.81;;;2.39;80.69
67517;BME280;54359;59.124;37.910;2022-10-26T07:47:28;100149.91;;;2.33;80.83
67517;BME280;54359;59.124;37.910;2022-10-26T07:50:13;100163.81;;;2.41;80.48
67517;BME280;54359;59.124;37.910;2022-10-26T07:52:59;100170.75;;;2.45;80.81
67517;BME280;54359;59.124;37.910;2022-10-26T07:55:25;100161.47;;;2.46;80.64
67517;BME280;54359;59.124;37.910;2022-10-26T07:58:00;100160.53;;;2.44;81.01
67517;BME280;54359;59.124;37.910;2022-10-26T08:00:45;100157.28;;;2.46;80.60
67517;BME280;54359;59.124;37.910;2022-10-26T08:03:22;100143.50;;;2.41;80.54
67517;BME280;54359;59.124;37.910;2022-10-26T08:06:09;100129.88;;;2.39;80.56
67517;BME280;54359;59.124;37.910;2022-10-26T08:08:56;100160.81;;;2.50;80.57
67517;BME280;54359;59.124;37.910;2022-10-26T08:11:29;100147.72;;;2.40;80.73
67517;BME280;54359;59.124;37.910;2022-10-26T08:13:58;100143.50;;;2.41;81.09
67517;BME280;54359;59.124;37.910;2022-10-26T08:16:44;100164.09;;;2.47;80.91
67517;BME280;54359;59.124;37.910;2022-10-26T08:19:31;100158.91;;;2.44;80.65
67517;BME280;54359;59.124;37.910;2022-10-26T08:22:15;100158.63;;;2.38;80.78
67517;BME280;54359;59.124;37.910;2022-10-26T08:24:44;100153.31;;;2.33;80.84
67517;BME280;54359;59.124;37.910;2022-10-26T08:27:16;100155.78;;;2.32;81.14
67517;BME280;54359;59.124;37.910;2022-10-26T08:30:03;100147.81;;;2.24;81.31
67517;BME280;54359;59.124;37.910;2022-10-26T08:33:01;100160.72;;;2.29;80.85
67517;BME280;54359;59.124;37.910;2022-10-26T08:35:47;100143.53;;;2.23;80.62
67517;BME280;54359;59.124;37.910;2022-10-26T08:38:26;100153.25;;;2.14;80.52
67517;BME280;54359;59.124;37.910;2022-10-26T08:41:12;100146.22;;;2.08;80.79
67517;BME280;54359;59.124;37.910;2022-10-26T08:43:55;100142.81;;;2.08;81.01
67517;BME280;54359;59.124;37.910;2022-10-26T08:47:04;100138.78;;;1.93;80.91
67517;BME280;54359;59.124;37.910;2022-10-26T08:50:05;100151.66;;;1.98;81.40
67517;BME280;54359;59.124;37.910;2022-10-26T08:52:55;100151.25;;;1.89;81.12
67517;BME280;54359;59.124;37.910;2022-10-26T08:55:32;100128.13;;;1.83;81.18
67517;BME280;54359;59.124;37.910;2022-10-26T08:58:00;100136.69;;;1.85;81.00
67517;BME280;54359;59.124;37.910;2022-10-26T09:01:06;100143.63;;;1.89;81.55
67517;BME280;54359;59.124;37.910;2022-10-26T09:04:12;100141.66;;;1.83;81.25
67517;BME280;54359;59.124;37.910;2022-10-26T09:21:11;100111.75;;;1.58;81.16
67517;BME280;54359;59.124;37.910;2022-10-26T09:27:03;100121.41;;;1.49;81.57
67517;BME280;54359;59.124;37.910;2022-10-26T09:29:55;100117.81;;;1.44;81.71
67517;BME280;54359;59.124;37.910;2022-10-26T09:32:47;100126.34;;;1.46;81.46
67517;BME280;54359;59.124;37.910;2022-10-26T09:35:21;100122.88;;;1.44;81.83
67517;BME280;54359;59.124;37.910;2022-10-26T09:44:35;100119.91;;;1.52;81.84
67517;BME280;54359;59.124;37.910;2022-10-26T09:50:33;100115.16;;;1.58;81.18
67517;BME280;54359;59.124;37.910;2022-10-26T09:53:31;100114.34;;;1.59;81.84
67517;BME280;54359;59.124;37.910;2022-10-26T09:56:30;100087.72;;;1.50;81.65
67517;BME280;54359;59.124;37.910;2022-10-26T09:59:36;100114.97;;;1.55;81.77
67517;BME280;54359;59.124;37.910;2022-10-26T10:05:27;100097.63;;;1.63;82.08
67517;BME280;54359;59.124;37.910;2022-10-26T10:08:23;100097.69;;;1.65;82.15
67517;BME280;54359;59.124;37.910;2022-10-26T10:11:14;100090.41;;;1.71;82.12
67517;BME280;54359;59.124;37.910;2022-10-26T10:14:13;100099.22;;;1.79;82.12
67517;BME280;54359;59.124;37.910;2022-10-26T10:17:07;100097.72;;;1.83;81.84
67517;BME280;54359;59.124;37.910;2022-10-26T10:20:09;100082.28;;;1.78;81.99
67517;BME280;54359;59.124;37.910;2022-10-26T10:22:53;100074.91;;;1.83;81.67
67517;BME280;54359;59.124;37.910;2022-10-26T10:25:40;100072.38;;;1.83;82.05
67517;BME280;54359;59.124;37.910;2022-10-26T10:28:27;100073.16;;;1.81;82.02
67517;BME280;54359;59.124;37.910;2022-10-26T10:31:26;100067.31;;;1.83;82.36
67517;BME280;54359;59.124;37.910;2022-10-26T10:33:55;100062.06;;;1.79;81.89
67517;BME280;54359;59.124;37.910;2022-10-26T10:36:24;100059.78;;;1.66;81.67
67517;BME280;54359;59.124;37.910;2022-10-26T10:38:52;100069.31;;;1.72;82.21
67517;BME280;54359;59.124;37.910;2022-10-26T10:41:43;100069.97;;;1.68;82.13
67517;BME280;54359;59.124;37.910;2022-10-26T10:44:21;100053.53;;;1.59;82.15
67517;BME280;54359;59.124;37.910;2022-10-26T10:47:36;100067.22;;;1.63;82.52
67517;BME280;54359;59.124;37.910;2022-10-26T10:50:14;100063.75;;;1.61;82.32
67517;BME280;54359;59.124;37.910;2022-10-26T10:52:43;100065.53;;;1.64;82.18
67517;BME280;54359;59.124;37.910;2022-10-26T10:55:28;100062.16;;;1.63;82.32
67517;BME280;54359;59.124;37.910;2022-10-26T10:58:20;100076.13;;;1.73;82.52
67517;BME280;54359;59.124;37.910;2022-10-26T11:01:13;100060.00;;;1.71;82.26
67517;BME280;54359;59.124;37.910;2022-10-26T11:06:26;100075.41;;;1.75;82.32
67517;BME280;54359;59.124;37.910;2022-10-26T11:09:25;100061.06;;;1.76;81.98
67517;BME280;54359;59.124;37.910;2022-10-26T11:12:09;100078.22;;;1.81;82.20
67517;BME280;54359;59.124;37.910;2022-10-26T11:15:11;100060.00;;;1.71;82.21
67517;BME280;54359;59.124;37.910;2022-10-26T11:18:07;100066.94;;;1.75;82.09
67517;BME280;54359;59.124;37.910;2022-10-26T11:21:16;100064.97;;;1.69;81.94
67517;BME280;54359;59.124;37.910;2022-10-26T11:24:25;100070.19;;;1.72;82.47
67517;BME280;54359;59.124;37.910;2022-10-26T11:27:10;100057.94;;;1.64;82.47
67517;BME280;54359;59.124;37.910;2022-10-26T11:30:12;100057.28;;;1.68;82.25
67517;BME280;54359;59.124;37.910;2022-10-26T11:35:34;100057.53;;;1.72;82.20
67517;BME280;54359;59.124;37.910;2022-10-26T11:47:36;100053.75;;;1.82;82.33
67517;BME280;54359;59.124;37.910;2022-10-26T11:50:53;100060.69;;;1.86;82.44
67517;BME280;54359;59.124;37.910;2022-10-26T11:53:41;100063.75;;;1.97;82.45
67517;BME280;54359;59.124;37.910;2022-10-26T11:56:33;100053.59;;;1.97;82.51
67517;BME280;54359;59.124;37.910;2022-10-26T11:59:03;100037.19;;;1.89;82.23
67517;BME280;54359;59.124;37.910;2022-10-26T12:01:38;100047.44;;;1.92;82.97
67517;BME280;54359;59.124;37.910;2022-10-26T12:04:12;100040.03;;;1.96;82.39
67517;BME280;54359;59.124;37.910;2022-10-26T12:06:40;100030.63;;;1.94;82.50
67517;BME280;54359;59.124;37.910;2022-10-26T12:09:37;100044.13;;;1.93;82.29
67517;BME280;54359;59.124;37.910;2022-10-26T12:12:43;100038.69;;;1.85;82.63
67517;BME280;54359;59.124;37.910;2022-10-26T12:15:40;100042.16;;;1.87;82.44
67517;BME280;54359;59.124;37.910;2022-10-26T12:18:33;100036.09;;;1.84;82.54
67517;BME280;54359;59.124;37.910;2022-10-26T12:21:06;100035.06;;;1.80;82.68
67517;BME280;54359;59.124;37.910;2022-10-26T12:24:00;100041.34;;;1.88;82.92
67517;BME280;54359;59.124;37.910;2022-10-26T12:26:51;100035.50;;;1.89;82.57
67517;BME280;54359;59.124;37.910;2022-10-26T12:29:47;100040.66;;;1.91;82.51
67517;BME280;54359;59.124;37.910;2022-10-26T12:35:01;100022.53;;;1.83;82.99
67517;BME280;54359;59.124;37.910;2022-10-26T12:37:49;100040.66;;;1.91;82.37
67517;BME280;54359;59.124;37.910;2022-10-26T12:48:47;100024.81;;;1.96;82.79
67517;BME280;54359;59.124;37.910;2022-10-26T12:57:05;100029.03;;;1.96;82.64
67517;BME280;54359;59.124;37.910;2022-10-26T12:59:51;100022.94;;;1.92;82.57
67517;BME280;54359;59.124;37.910;2022-10-26T13:02:43;100041.88;;;1.99;82.54
67517;BME280;54359;59.124;37.910;2022-10-26T13:05:27;100031.72;;;1.99;82.45
67517;BME280;54359;59.124;37.910;2022-10-26T13:08:09;100028.38;;;2.00;83.16
67517;BME280;54359;59.124;37.910;2022-10-26T13:11:05;100030.13;;;2.01;83.18
67517;BME280;54359;59.124;37.910;2022-10-26T13:13:55;100020.00;;;2.01;82.78
67517;BME280;54359;59.124;37.910;2022-10-26T13:16:23;100019.75;;;1.96;82.48
67517;BME280;54359;59.124;37.910;2022-10-26T13:18:51;100023.38;;;2.01;83.12
67517;BME280;54359;59.124;37.910;2022-10-26T13:21:45;100024.25;;;2.02;82.88
67517;BME280;54359;59.124;37.910;2022-10-26T13:24:33;100013.25;;;2.01;82.58
67517;BME280;54359;59.124;37.910;2022-10-26T13:32:49;100003.38;;;2.08;83.40
67517;BME280;54359;59.124;37.910;2022-10-26T13:35:19;100009.66;;;2.16;83.42
67517;BME280;54359;59.124;37.910;2022-10-26T13:38:09;100010.44;;;2.15;83.50
67517;BME280;54359;59.124;37.910;2022-10-26T13:40:39;100019.22;;;2.21;83.06
67517;BME280;54359;59.124;37.910;2022-10-26T13:43:35;100019.13;;;2.20;82.73
67517;BME280;54359;59.124;37.910;2022-10-26T13:46:35;100010.69;;;2.19;83.33
67517;BME280;54359;59.124;37.910;2022-10-26T13:49:20;99996.91;;;2.14;82.84
67517;BME280;54359;59.124;37.910;2022-10-26T13:52:13;100015.19;;;2.27;82.83
67517;BME280;54359;59.124;37.910;2022-10-26T13:58:30;100018.00;;;2.33;83.14
67517;BME280;54359;59.124;37.910;2022-10-26T14:01:21;100022.34;;;2.35;82.84
67517;BME280;54359;59.124;37.910;2022-10-26T14:04:26;100013.00;;;2.34;83.05
67517;BME280;54359;59.124;37.910;2022-10-26T14:07:19;99999.31;;;2.31;82.70
67517;BME280;54359;59.124;37.910;2022-10-26T14:09:50;99991.13;;;2.36;82.60
67517;BME280;54359;59.124;37.910;2022-10-26T14:12:23;100005.59;;;2.39;82.51
67517;BME280;54359;59.124;37.910;2022-10-26T14:15:06;99991.84;;;2.34;82.97
67517;BME280;54359;59.124;37.910;2022-10-26T14:17:41;99987.72;;;2.36;83.10
67517;BME280;54359;59.124;37.910;2022-10-26T14:20:37;99992.25;;;2.43;83.14
67517;BME280;54359;59.124;37.910;2022-10-26T14:26:37;100006.78;;;2.47;83.27
67517;BME280;54359;59.124;37.910;2022-10-26T14:29:36;99997.59;;;2.49;83.13
67517;BME280;54359;59.124;37.910;2022-10-26T14:32:26;99995.53;;;2.40;83.47
67517;BME280;54359;59.124;37.910;2022-10-26T14:34:53;100006.00;;;2.48;83.18
67517;BME280;54359;59.124;37.910;2022-10-26T14:40:59;99996.56;;;2.46;83.24
67517;BME280;54359;59.124;37.910;2022-10-26T14:43:47;99983.84;;;2.44;82.75
67517;BME280;54359;59.124;37.910;2022-10-26T14:46:34;99993.44;;;2.51;83.60
67517;BME280;54359;59.124;37.910;2022-10-26T14:49:21;99979.69;;;2.46;83.22
67517;BME280;54359;59.124;37.910;2022-10-26T14:51:49;99989.19;;;2.50;83.47
67517;BME280;54359;59.124;37.910;2022-10-26T14:54:39;99986.94;;;2.58;83.01
67517;BME280;54359;59.124;37.910;2022-10-26T14:57:37;99982.63;;;2.55;83.21
67517;BME280;54359;59.124;37.910;2022-10-26T15:00:18;99991.44;;;2.64;83.35
67517;BME280;54359;59.124;37.910;2022-10-26T15:03:04;99995.72;;;2.65;83.18
67517;BME280;54359;59.124;37.910;2022-10-26T15:05:39;99979.34;;;2.58;83.18
67517;BME280;54359;59.124;37.910;2022-10-26T15:08:43;99991.69;;;2.70;83.38
67517;BME280;54359;59.124;37.910;2022-10-26T15:11:33;99981.53;;;2.70;83.35
67517;BME280;54359;59.124;37.910;2022-10-26T15:14:09;99990.06;;;2.72;82.95
67517;BME280;54359;59.124;37.910;2022-10-26T15:17:25;99981.78;;;2.76;83.03
67517;BME280;54359;59.124;37.910;2022-10-26T15:20:04;99965.56;;;2.72;83.01
67517;BME280;54359;59.124;37.910;2022-10-26T15:22:56;99959.09;;;2.59;83.64
67517;BME280;54359;59.124;37.910;2022-10-26T15:26:22;99979.19;;;2.74;82.89
67517;BME280;54359;59.124;37.910;2022-10-26T15:28:54;99960.09;;;2.63;83.33
67517;BME280;54359;59.124;37.910;2022-10-26T15:32:03;99977.31;;;2.70;83.38
67517;BME280;54359;59.124;37.910;2022-10-26T15:35:14;99969.59;;;2.67;83.37
67517;BME280;54359;59.124;37.910;2022-10-26T15:37:47;99970.44;;;2.68;83.33
67517;BME280;54359;59.124;37.910;2022-10-26T15:40:47;99942.94;;;2.57;83.35
67517;BME280;54359;59.124;37.910;2022-10-26T15:43:18;99951.63;;;2.63;83.13
67517;BME280;54359;59.124;37.910;2022-10-26T15:46:18;99968.84;;;2.70;83.53
67517;BME280;54359;59.124;37.910;2022-10-26T15:49:06;99962.16;;;2.72;83.28
67517;BME280;54359;59.124;37.910;2022-10-26T15:51:33;99953.53;;;2.68;83.32
67517;BME280;54359;59.124;37.910;2022-10-26T15:54:03;99947.75;;;2.71;83.30
67517;BME280;54359;59.124;37.910;2022-10-26T15:56:30;99950.22;;;2.69;83.52
67517;BME280;54359;59.124;37.910;2022-10-26T15:59:01;99938.06;;;2.62;83.38
67517;BME280;54359;59.124;37.910;2022-10-26T16:01:32;99946.00;;;2.70;83.58
67517;BME280;54359;59.124;37.910;2022-10-26T16:03:58;99951.31;;;2.76;83.52